createdAt,value
2019-03-11T00:01:17.189Z,7.20
2019-03-11T00:03:49.107Z,7.10
2019-03-11T00:06:19.988Z,6.90
2019-03-11T00:08:50.042Z,6.60
2019-03-11T00:11:21.095Z,6.40
2019-03-11T00:13:52.672Z,6.10
2019-03-11T00:16:24.890Z,5.80
2019-03-11T00:18:54.692Z,5.60
2019-03-11T00:21:25.556Z,5.30
2019-03-11T00:23:56.647Z,5.10
2019-03-11T00:26:28.774Z,4.80
2019-03-11T00:29:01.645Z,4.70
2019-03-11T00:31:32.889Z,4.40
2019-03-11T00:34:04.070Z,4.10
2019-03-11T00:36:38.083Z,3.90
2019-03-11T00:39:08.383Z,3.70
2019-03-11T00:41:39.393Z,3.60
2019-03-11T00:44:10.567Z,3.50
2019-03-11T00:46:40.194Z,3.50
2019-03-11T00:49:11.158Z,3.50
2019-03-11T00:51:42.306Z,3.40
2019-03-11T00:54:14.590Z,3.40
2019-03-11T00:56:44.463Z,3.40
2019-03-11T00:59:14.434Z,3.40
2019-03-11T01:01:46.717Z,3.30
2019-03-11T01:04:17.754Z,3.30
2019-03-11T01:06:48.357Z,3.30
2019-03-11T01:09:22.780Z,3.20
2019-03-11T01:11:52.562Z,3.10
2019-03-11T01:14:24.455Z,3.10
2019-03-11T01:17:13.562Z,3.00
2019-03-11T01:19:44.453Z,3.00
2019-03-11T01:22:16.695Z,2.90
2019-03-11T01:24:46.791Z,2.90
2019-03-11T01:27:17.651Z,2.90
2019-03-11T01:29:48.595Z,2.90
2019-03-11T01:32:19.509Z,2.90
2019-03-11T01:34:50.108Z,2.80
2019-03-11T01:37:21.008Z,2.80
2019-03-11T01:39:50.989Z,2.80
2019-03-11T01:42:21.802Z,2.80
2019-03-11T01:44:54.856Z,2.80
2019-03-11T01:47:26.015Z,2.80
2019-03-11T01:49:56.880Z,2.80
2019-03-11T01:52:27.840Z,2.80
2019-03-11T01:54:57.786Z,2.70
2019-03-11T01:57:27.075Z,2.80
2019-03-11T01:59:58.305Z,2.80
2019-03-11T02:02:29.554Z,2.80
2019-03-11T02:04:58.916Z,2.80
2019-03-11T02:07:30.247Z,2.80
2019-03-11T02:10:01.041Z,2.80
2019-03-11T02:12:30.790Z,2.90
2019-03-11T02:15:02.959Z,2.90
2019-03-11T02:17:33.865Z,2.90
2019-03-11T02:20:04.771Z,2.90
2019-03-11T02:22:34.806Z,2.90
2019-03-11T02:25:04.805Z,2.90
2019-03-11T02:27:36.292Z,3.00
2019-03-11T02:30:12.406Z,3.00
2019-03-11T02:32:44.926Z,3.00
2019-03-11T02:35:19.696Z,3.00
2019-03-11T02:37:49.391Z,3.00
2019-03-11T02:40:20.220Z,3.00
2019-03-11T02:42:51.452Z,3.10
2019-03-11T02:45:22.399Z,3.10
2019-03-11T02:47:54.976Z,3.10
2019-03-11T02:50:26.343Z,3.00
2019-03-11T02:52:59.503Z,3.00
2019-03-11T02:55:29.351Z,3.00
2019-03-11T02:58:01.309Z,3.00
2019-03-11T03:00:31.282Z,3.00
2019-03-11T03:03:19.949Z,3.00
2019-03-11T03:05:52.515Z,3.00
2019-03-11T03:08:24.951Z,3.00
2019-03-11T03:10:58.063Z,3.10
2019-03-11T03:13:30.421Z,3.10
2019-03-11T03:16:01.532Z,3.20
2019-03-11T03:18:31.496Z,3.20
2019-03-11T03:21:02.262Z,3.20
2019-03-11T03:23:33.311Z,3.20
2019-03-11T03:26:03.214Z,3.20
2019-03-11T03:28:33.734Z,3.30
2019-03-11T03:31:04.824Z,3.30
2019-03-11T03:33:36.075Z,3.30
2019-03-11T03:36:08.457Z,3.40
2019-03-11T03:38:39.422Z,3.40
2019-03-11T03:41:10.132Z,3.40
2019-03-11T03:43:40.033Z,3.30
2019-03-11T03:46:18.545Z,3.30
2019-03-11T03:48:43.816Z,3.30
2019-03-11T03:51:13.777Z,3.20
2019-03-11T03:53:43.438Z,3.20
2019-03-11T03:56:14.738Z,3.10
2019-03-11T03:58:46.074Z,3.00
2019-03-11T04:01:16.985Z,3.00
2019-03-11T04:03:49.136Z,3.00
2019-03-11T04:06:19.936Z,3.00
2019-03-11T04:08:49.808Z,3.00
2019-03-11T04:11:22.221Z,3.00
2019-03-11T04:13:53.288Z,3.00
2019-03-11T04:16:24.714Z,3.00
2019-03-11T04:18:57.795Z,3.00
2019-03-11T04:21:27.722Z,3.00
2019-03-11T04:23:58.600Z,3.00
2019-03-11T04:26:31.034Z,3.00
2019-03-11T04:29:00.900Z,3.00
2019-03-11T04:31:32.039Z,3.00
2019-03-11T04:34:03.037Z,3.00
2019-03-11T04:36:32.956Z,3.00
2019-03-11T04:39:05.140Z,3.00
2019-03-11T04:41:36.599Z,3.00
2019-03-11T04:44:09.633Z,3.00
2019-03-11T04:46:40.905Z,3.00
2019-03-11T04:49:13.313Z,3.10
2019-03-11T04:51:44.305Z,3.00
2019-03-11T04:54:15.210Z,3.00
2019-03-11T04:56:46.043Z,3.00
2019-03-11T04:59:15.913Z,3.10
2019-03-11T05:01:47.284Z,3.10
2019-03-11T05:04:18.279Z,3.20
2019-03-11T05:06:53.470Z,3.20
2019-03-11T05:09:23.312Z,3.20
2019-03-11T05:11:53.298Z,3.20
2019-03-11T05:14:23.539Z,3.10
2019-03-11T05:16:54.546Z,3.10
2019-03-11T05:19:27.328Z,3.10
2019-03-11T05:21:58.283Z,3.10
2019-03-11T05:24:29.318Z,3.10
2019-03-11T05:27:02.223Z,3.10
2019-03-11T05:29:32.089Z,3.10
2019-03-11T05:32:02.919Z,3.10
2019-03-11T05:34:37.480Z,3.10
2019-03-11T05:37:08.902Z,3.20
2019-03-11T05:39:38.816Z,3.20
2019-03-11T05:42:08.768Z,3.20
2019-03-11T05:44:38.896Z,3.20
2019-03-11T05:47:09.651Z,3.30
2019-03-11T05:49:39.504Z,3.30
2019-03-11T05:52:10.357Z,3.30
2019-03-11T05:55:02.584Z,3.30
2019-03-11T05:57:35.743Z,3.40
2019-03-11T06:00:12.565Z,3.50
2019-03-11T06:02:43.543Z,3.50
2019-03-11T06:05:14.557Z,3.60
2019-03-11T06:07:44.810Z,3.70
2019-03-11T06:10:17.214Z,3.70
2019-03-11T06:12:48.259Z,3.60
2019-03-11T06:15:20.673Z,3.70
2019-03-11T06:17:51.667Z,3.70
2019-03-11T06:20:40.205Z,3.70
2019-03-11T06:23:12.653Z,3.80
2019-03-11T06:25:41.555Z,3.90
2019-03-11T06:28:12.427Z,3.90
2019-03-11T06:30:42.259Z,3.90
2019-03-11T06:33:12.264Z,4.00
2019-03-11T06:35:43.228Z,4.00
2019-03-11T06:38:16.471Z,4.10
2019-03-11T06:40:46.522Z,4.10
2019-03-11T06:43:18.006Z,4.10
2019-03-11T06:45:47.930Z,4.10
2019-03-11T06:48:19.046Z,4.00
2019-03-11T06:50:48.850Z,4.10
2019-03-11T06:53:19.928Z,4.10
2019-03-11T06:55:50.923Z,4.10
2019-03-11T06:58:21.971Z,4.20
2019-03-11T07:00:51.871Z,4.20
2019-03-11T07:03:22.872Z,4.30
2019-03-11T07:05:53.846Z,4.30
2019-03-11T07:08:24.485Z,4.30
2019-03-11T07:10:55.476Z,4.30
2019-03-11T07:13:27.689Z,4.40
2019-03-11T07:15:57.595Z,4.50
2019-03-11T07:18:27.467Z,4.60
2019-03-11T07:20:57.355Z,4.70
2019-03-11T07:23:29.806Z,4.80
2019-03-11T07:25:59.604Z,4.80
2019-03-11T07:28:30.566Z,5.00
2019-03-11T07:31:01.767Z,5.00
2019-03-11T07:33:33.246Z,5.10
2019-03-11T07:36:05.665Z,5.10
2019-03-11T07:38:35.464Z,5.10
2019-03-11T07:41:06.175Z,5.10
2019-03-11T07:43:36.639Z,5.20
2019-03-11T07:46:06.666Z,5.10
2019-03-11T07:48:36.475Z,5.10
2019-03-11T07:51:06.532Z,5.10
2019-03-11T07:53:37.671Z,5.10
2019-03-11T07:56:09.972Z,5.10
2019-03-11T07:58:40.991Z,5.20
2019-03-11T08:01:12.213Z,5.20
2019-03-11T08:03:42.971Z,5.70
2019-03-11T08:06:18.504Z,6.20
2019-03-11T08:08:47.883Z,6.90
2019-03-11T08:11:18.737Z,7.40
2019-03-11T08:13:53.263Z,7.90
2019-03-11T08:16:24.361Z,7.50
2019-03-11T08:18:54.180Z,7.20
2019-03-11T08:21:24.260Z,7.20
2019-03-11T08:23:55.696Z,7.40
2019-03-11T08:26:28.558Z,7.70
2019-03-11T08:28:58.470Z,8.40
2019-03-11T08:31:47.730Z,8.70
2019-03-11T08:34:18.703Z,8.80
2019-03-11T08:36:48.558Z,8.70
2019-03-11T08:39:18.420Z,8.10
2019-03-11T08:41:48.368Z,7.20
2019-03-11T08:44:18.687Z,6.90
2019-03-11T08:46:49.657Z,7.10
2019-03-11T08:49:18.512Z,7.00
2019-03-11T08:51:48.349Z,6.60
2019-03-11T08:54:19.310Z,6.50
2019-03-11T08:56:50.754Z,6.40
2019-03-11T08:59:20.564Z,6.60
2019-03-11T09:01:51.566Z,6.80
2019-03-11T09:04:22.612Z,6.70
2019-03-11T09:06:53.418Z,6.80
2019-03-11T09:09:23.244Z,7.20
2019-03-11T09:11:53.247Z,7.40
2019-03-11T09:14:25.527Z,7.40
2019-03-11T09:16:56.468Z,7.40
2019-03-11T09:19:25.721Z,7.50
2019-03-11T09:21:55.543Z,7.60
2019-03-11T09:24:25.365Z,7.40
2019-03-11T09:26:54.729Z,7.40
2019-03-11T09:29:25.753Z,7.50
2019-03-11T09:31:58.011Z,7.40
2019-03-11T09:34:27.892Z,7.90
2019-03-11T09:36:59.355Z,8.10
2019-03-11T09:39:29.187Z,8.70
2019-03-11T09:42:00.056Z,8.50
2019-03-11T09:44:29.922Z,7.80
2019-03-11T09:47:00.880Z,7.80
2019-03-11T09:49:31.734Z,8.00
2019-03-11T09:52:03.956Z,8.60
2019-03-11T09:54:36.240Z,9.10
2019-03-11T09:57:07.311Z,8.90
2019-03-11T09:59:38.227Z,8.90
2019-03-11T10:02:08.227Z,9.10
2019-03-11T10:04:41.256Z,9.50
2019-03-11T10:07:11.152Z,9.20
2019-03-11T10:09:40.469Z,8.60
2019-03-11T10:12:10.448Z,8.30
2019-03-11T10:14:40.168Z,8.00
2019-03-11T10:17:11.271Z,7.70
2019-03-11T10:19:41.231Z,7.90
2019-03-11T10:22:12.555Z,7.90
2019-03-11T10:24:42.300Z,7.90
2019-03-11T10:27:12.110Z,7.90
2019-03-11T10:29:43.296Z,7.60
2019-03-11T10:32:13.097Z,7.70
2019-03-11T10:34:46.264Z,7.70
2019-03-11T10:37:17.587Z,7.60
2019-03-11T10:39:48.101Z,7.60
2019-03-11T10:42:18.144Z,7.40
2019-03-11T10:44:50.306Z,7.10
2019-03-11T10:47:21.302Z,7.10
2019-03-11T10:49:53.597Z,7.50
2019-03-11T10:52:24.920Z,7.80
2019-03-11T10:54:54.812Z,8.10
2019-03-11T10:57:24.748Z,8.30
2019-03-11T10:59:56.935Z,8.30
2019-03-11T11:02:26.971Z,8.40
2019-03-11T11:04:56.859Z,8.30
2019-03-11T11:07:27.314Z,8.80
2019-03-11T11:09:57.889Z,9.60
2019-03-11T11:12:28.799Z,10.00
2019-03-11T11:14:58.641Z,10.00
2019-03-11T11:17:31.607Z,9.90
2019-03-11T11:20:03.694Z,9.40
2019-03-11T11:22:37.994Z,9.10
2019-03-11T11:25:12.783Z,9.40
2019-03-11T11:27:43.776Z,10.00
2019-03-11T11:30:17.592Z,10.50
2019-03-11T11:32:49.866Z,10.50
2019-03-11T11:35:22.223Z,10.10
2019-03-11T11:37:54.688Z,9.70
2019-03-11T11:40:28.735Z,9.30
2019-03-11T11:42:59.689Z,8.90
2019-03-11T11:45:32.907Z,8.60
2019-03-11T11:48:04.549Z,8.50
2019-03-11T11:50:35.848Z,8.30
2019-03-11T11:53:08.855Z,8.20
2019-03-11T11:55:38.770Z,8.10
2019-03-11T11:58:08.736Z,8.00
2019-03-11T12:00:52.945Z,8.10
2019-03-11T12:03:25.498Z,8.20
2019-03-11T12:05:57.998Z,8.30
2019-03-11T12:08:27.906Z,8.10
2019-03-11T12:10:59.177Z,8.00
2019-03-11T12:13:30.010Z,8.00
2019-03-11T12:16:01.124Z,7.90
2019-03-11T12:18:31.027Z,7.80
2019-03-11T12:21:02.111Z,7.80
2019-03-11T12:23:33.480Z,7.90
2019-03-11T12:26:03.703Z,7.90
2019-03-11T12:28:36.087Z,7.90
2019-03-11T12:31:06.695Z,8.00
2019-03-11T12:33:40.909Z,8.20
2019-03-11T12:36:15.122Z,8.50
2019-03-11T12:38:45.945Z,8.60
2019-03-11T12:41:16.767Z,8.80
2019-03-11T12:43:48.883Z,9.00
2019-03-11T12:46:21.347Z,8.90
2019-03-11T12:48:53.798Z,8.90
2019-03-11T12:51:26.246Z,8.80
2019-03-11T12:53:56.054Z,8.70
2019-03-11T12:56:26.028Z,8.50
2019-03-11T12:58:55.860Z,8.30
2019-03-11T13:01:26.678Z,8.20
2019-03-11T13:03:58.526Z,7.90
2019-03-11T13:06:29.523Z,7.90
2019-03-11T13:09:01.756Z,7.90
2019-03-11T13:11:32.524Z,8.40
2019-03-11T13:14:03.345Z,8.20
2019-03-11T13:16:34.204Z,7.80
2019-03-11T13:19:13.319Z,7.60
2019-03-11T13:21:42.184Z,7.40
2019-03-11T13:24:11.988Z,7.40
2019-03-11T13:26:43.100Z,7.30
2019-03-11T13:29:13.901Z,7.30
2019-03-11T13:31:43.968Z,7.20
2019-03-11T13:34:14.035Z,7.10
2019-03-11T13:36:46.563Z,6.90
2019-03-11T13:39:18.936Z,6.70
2019-03-11T13:41:53.058Z,6.10
2019-03-11T13:44:23.934Z,5.10
2019-03-11T13:46:53.941Z,4.50
2019-03-11T13:49:24.911Z,3.90
2019-03-11T13:51:56.397Z,3.40
2019-03-11T13:54:28.931Z,3.00
2019-03-11T13:57:01.218Z,2.70
2019-03-11T13:59:33.635Z,2.50
2019-03-11T14:02:03.505Z,2.40
2019-03-11T14:04:34.292Z,2.30
2019-03-11T14:07:06.636Z,2.20
2019-03-11T14:09:37.847Z,2.10
2019-03-11T14:12:08.904Z,2.10
2019-03-11T14:14:41.171Z,2.20
2019-03-11T14:17:12.406Z,2.20
2019-03-11T14:19:44.700Z,2.30
2019-03-11T14:22:17.863Z,2.40
2019-03-11T14:24:50.864Z,2.50
2019-03-11T14:27:22.017Z,2.50
2019-03-11T14:29:56.596Z,2.50
2019-03-11T14:32:26.593Z,2.60
2019-03-11T14:34:59.076Z,2.50
2019-03-11T14:37:28.961Z,2.40
2019-03-11T14:39:59.530Z,2.40
2019-03-11T14:42:30.415Z,2.30
2019-03-11T14:45:02.743Z,2.30
2019-03-11T14:47:36.317Z,2.30
2019-03-11T14:50:08.729Z,2.40
2019-03-11T14:52:38.635Z,2.60
2019-03-11T14:55:11.687Z,2.80
2019-03-11T14:57:43.301Z,2.90
2019-03-11T15:00:22.004Z,3.20
2019-03-11T15:02:51.989Z,3.50
2019-03-11T15:05:22.578Z,4.10
2019-03-11T15:07:56.498Z,4.80
2019-03-11T15:10:27.398Z,4.70
2019-03-11T15:13:00.572Z,4.40
2019-03-11T15:15:33.187Z,4.10
2019-03-11T15:18:03.163Z,3.70
2019-03-11T15:20:33.965Z,3.60
2019-03-11T15:23:10.889Z,3.40
2019-03-11T15:25:36.384Z,3.20
2019-03-11T15:28:06.789Z,3.10
2019-03-11T15:30:36.810Z,3.00
2019-03-11T15:33:09.435Z,2.90
2019-03-11T15:35:43.635Z,2.90
2019-03-11T15:38:14.044Z,2.90
2019-03-11T15:40:46.696Z,2.90
2019-03-11T15:43:17.647Z,3.00
2019-03-11T15:45:48.656Z,3.30
2019-03-11T15:48:18.930Z,3.90
2019-03-11T15:50:51.354Z,4.20
2019-03-11T15:53:21.287Z,4.80
2019-03-11T15:55:53.286Z,5.20
2019-03-11T15:58:24.278Z,5.00
2019-03-11T16:00:56.348Z,4.60
2019-03-11T16:03:35.989Z,4.30
2019-03-11T16:06:02.241Z,4.00
2019-03-11T16:08:34.613Z,3.80
2019-03-11T16:11:05.427Z,3.60
2019-03-11T16:13:37.792Z,3.40
2019-03-11T16:16:07.071Z,3.30
2019-03-11T16:18:43.000Z,3.10
2019-03-11T16:21:13.970Z,3.00
2019-03-11T16:23:46.229Z,3.00
2019-03-11T16:26:18.483Z,3.00
2019-03-11T16:28:48.568Z,3.00
2019-03-11T16:31:20.629Z,3.00
2019-03-11T16:33:53.948Z,3.00
2019-03-11T16:36:27.270Z,3.00
2019-03-11T16:38:57.547Z,3.00
2019-03-11T16:41:26.496Z,3.10
2019-03-11T16:43:56.475Z,3.00
2019-03-11T16:46:27.408Z,3.00
2019-03-11T16:48:58.523Z,2.90
2019-03-11T16:51:29.892Z,2.80
2019-03-11T16:54:00.622Z,2.80
2019-03-11T16:56:33.155Z,2.70
2019-03-11T16:59:04.202Z,2.70
2019-03-11T17:01:35.108Z,2.60
2019-03-11T17:04:06.284Z,2.50
2019-03-11T17:06:37.173Z,2.50
2019-03-11T17:09:07.652Z,2.60
2019-03-11T17:11:39.771Z,2.70
2019-03-11T17:14:10.669Z,2.60
2019-03-11T17:16:42.348Z,2.60
2019-03-11T17:19:12.133Z,2.50
2019-03-11T17:21:42.434Z,2.50
2019-03-11T17:24:13.779Z,2.40
2019-03-11T17:26:43.735Z,2.40
2019-03-11T17:29:16.635Z,2.40
2019-03-11T17:31:48.743Z,2.30
2019-03-11T17:34:21.562Z,2.30
2019-03-11T17:36:52.730Z,2.30
2019-03-11T17:39:23.594Z,2.20
2019-03-11T17:41:54.580Z,2.10
2019-03-11T17:44:25.560Z,2.10
2019-03-11T17:46:56.435Z,2.00
2019-03-11T17:49:27.288Z,2.00
2019-03-11T17:51:57.195Z,2.00
2019-03-11T17:54:26.942Z,2.10
2019-03-11T17:56:56.871Z,2.10
2019-03-11T17:59:27.588Z,2.10
2019-03-11T18:01:57.545Z,1.90
2019-03-11T18:04:29.536Z,1.90
2019-03-11T18:06:59.433Z,1.90
2019-03-11T18:09:31.707Z,2.00
2019-03-11T18:12:01.640Z,1.90
2019-03-11T18:14:33.596Z,1.90
2019-03-11T18:17:04.659Z,1.80
2019-03-11T18:19:35.576Z,1.80
2019-03-11T18:22:07.411Z,1.80
2019-03-11T18:24:39.781Z,1.80
2019-03-11T18:27:12.776Z,1.80
2019-03-11T18:29:44.344Z,1.80
2019-03-11T18:32:16.817Z,1.80
2019-03-11T18:34:49.270Z,1.80
2019-03-11T18:37:19.068Z,1.80
2019-03-11T18:39:53.846Z,1.80
2019-03-11T18:42:26.277Z,1.70
2019-03-11T18:44:56.571Z,1.70
2019-03-11T18:47:27.487Z,1.70
2019-03-11T18:49:58.659Z,1.70
2019-03-11T18:52:29.422Z,1.70
2019-03-11T18:55:00.238Z,1.80
2019-03-11T18:57:30.146Z,1.90
2019-03-11T19:00:01.009Z,2.00
2019-03-11T19:02:31.000Z,2.00
2019-03-11T19:05:00.811Z,1.90
2019-03-11T19:07:30.736Z,1.90
2019-03-11T19:10:03.174Z,2.00
2019-03-11T19:12:33.038Z,2.10
2019-03-11T19:15:05.644Z,2.20
2019-03-11T19:17:35.407Z,2.30
2019-03-11T19:20:09.816Z,2.30
2019-03-11T19:22:41.202Z,2.50
2019-03-11T19:25:11.319Z,2.60
2019-03-11T19:27:41.108Z,2.50
2019-03-11T19:30:14.810Z,2.40
2019-03-11T19:32:44.028Z,2.40
2019-03-11T19:35:17.265Z,2.30
2019-03-11T19:37:49.732Z,2.40
2019-03-11T19:40:24.316Z,2.30
2019-03-11T19:42:54.234Z,2.10
2019-03-11T19:45:25.463Z,1.90
2019-03-11T19:47:56.280Z,1.90
2019-03-11T19:50:26.247Z,1.90
2019-03-11T19:52:58.970Z,1.80
2019-03-11T19:55:30.195Z,1.80
2019-03-11T19:58:01.425Z,1.80
2019-03-11T20:00:32.523Z,1.80
2019-03-11T20:03:02.463Z,1.70
2019-03-11T20:05:39.295Z,1.50
2019-03-11T20:08:13.847Z,1.40
2019-03-11T20:10:45.099Z,1.30
2019-03-11T20:13:16.145Z,1.30
2019-03-11T20:15:47.194Z,1.30
2019-03-11T20:18:18.067Z,1.30
2019-03-11T20:20:50.588Z,1.30
2019-03-11T20:23:19.446Z,1.30
2019-03-11T20:25:49.417Z,1.30
2019-03-11T20:28:20.508Z,1.30
2019-03-11T20:30:50.425Z,1.30
2019-03-11T20:33:20.322Z,1.30
2019-03-11T20:35:50.335Z,1.20
2019-03-11T20:38:21.192Z,1.20
2019-03-11T20:40:52.069Z,1.20
2019-03-11T20:43:24.885Z,1.20
2019-03-11T20:45:54.747Z,1.10
2019-03-11T20:48:25.759Z,1.00
2019-03-11T20:50:55.518Z,1.10
2019-03-11T20:53:25.504Z,1.00
2019-03-11T20:55:57.762Z,1.10
2019-03-11T20:58:27.654Z,1.20
2019-03-11T21:00:57.490Z,1.20
2019-03-11T21:03:27.454Z,1.30
2019-03-11T21:06:18.251Z,1.30
2019-03-11T21:08:51.700Z,1.30
2019-03-11T21:11:24.023Z,1.40
2019-03-11T21:13:55.353Z,1.40
2019-03-11T21:16:25.527Z,1.40
2019-03-11T21:18:55.616Z,1.40
2019-03-11T21:21:29.327Z,1.40
2019-03-11T21:24:03.920Z,1.50
2019-03-11T21:26:34.975Z,1.50
2019-03-11T21:29:08.704Z,1.50
2019-03-11T21:31:38.818Z,1.50
2019-03-11T21:34:10.256Z,1.50
2019-03-11T21:36:39.796Z,1.50
2019-03-11T21:39:11.245Z,1.50
2019-03-11T21:41:43.942Z,1.60
2019-03-11T21:44:16.263Z,1.50
2019-03-11T21:46:50.035Z,1.50
2019-03-11T21:49:20.999Z,1.60
2019-03-11T21:51:54.482Z,1.70
2019-03-11T21:54:25.386Z,1.70
2019-03-11T21:56:58.507Z,1.80
2019-03-11T21:59:28.494Z,1.80
2019-03-11T22:01:59.673Z,1.90
2019-03-11T22:04:30.697Z,1.90
2019-03-11T22:07:02.397Z,2.00
2019-03-11T22:09:32.301Z,2.00
2019-03-11T22:12:03.192Z,2.00
2019-03-11T22:14:34.439Z,1.90
2019-03-11T22:17:04.447Z,1.80
2019-03-11T22:19:35.448Z,1.80
2019-03-11T22:22:09.947Z,1.80
2019-03-11T22:24:42.205Z,1.90
2019-03-11T22:27:13.133Z,1.80
2019-03-11T22:29:44.351Z,1.80
2019-03-11T22:32:14.332Z,1.80
2019-03-11T22:34:45.691Z,1.70
2019-03-11T22:37:14.980Z,1.70
2019-03-11T22:39:44.836Z,1.70
2019-03-11T22:42:18.303Z,1.70
2019-03-11T22:44:52.269Z,1.60
2019-03-11T22:47:23.341Z,1.60
2019-03-11T22:49:53.218Z,1.60
2019-03-11T22:52:25.676Z,1.60
2019-03-11T22:54:56.532Z,1.70
2019-03-11T22:57:29.825Z,1.70
2019-03-11T23:00:00.520Z,1.70
2019-03-11T23:02:30.715Z,1.70
2019-03-11T23:05:00.591Z,1.70
2019-03-11T23:07:34.880Z,1.60
2019-03-11T23:10:05.808Z,1.70
2019-03-11T23:12:36.765Z,1.60
2019-03-11T23:15:09.763Z,1.60
2019-03-11T23:17:42.131Z,1.60
2019-03-11T23:20:13.520Z,1.60
2019-03-11T23:22:46.736Z,1.60
2019-03-11T23:25:16.609Z,1.60
2019-03-11T23:27:48.814Z,1.60
2019-03-11T23:30:20.969Z,1.50
2019-03-11T23:32:50.219Z,1.60
2019-03-11T23:35:21.215Z,1.60
2019-03-11T23:37:52.321Z,1.60
2019-03-11T23:40:22.079Z,1.60
2019-03-11T23:42:52.850Z,1.60
2019-03-11T23:45:23.865Z,1.60
2019-03-11T23:47:54.837Z,1.70
2019-03-11T23:50:27.385Z,1.70
2019-03-11T23:52:58.411Z,1.70
2019-03-11T23:55:31.420Z,1.70
2019-03-11T23:58:00.718Z,1.80
